Time;durP1;ratioP1;P1;durP2;ratioP2;P2;SDS_P1;SDS_P2;PMS_P1;PMS_P2;Temp;Humidity;BMP_temperature;BMP_pressure;BME280_temperature;BME280_humidity;BME280_pressure;Samples;Min_cycle;Max_cycle;Signal;HPM_P1;HPM_P2
2021/11/05 00:00:37;;;;;;;1.60;1.30;;;7.10;98.20;;;;;;5069734;28;20469;-76
2021/11/05 00:03:04;;;;;;;1.60;1.30;;;7.00;98.20;;;;;;5070266;28;20956;-76
2021/11/05 00:05:32;;;;;;;1.60;1.30;;;7.10;98.20;;;;;;5068504;28;20501;-76
2021/11/05 00:08:02;;;;;;;1.60;1.30;;;7.10;98.20;;;;;;5056568;28;20478;-76
2021/11/05 00:10:30;;;;;;;1.60;1.30;;;7.10;98.20;;;;;;5061490;28;20466;-76
2021/11/05 00:12:57;;;;;;;1.60;1.30;;;7.20;98.20;;;;;;5069474;28;21068;-76
2021/11/05 00:15:24;;;;;;;1.60;1.30;;;7.20;98.20;;;;;;5065998;28;20457;-76
2021/11/05 00:17:50;;;;;;;1.60;1.30;;;7.20;98.20;;;;;;5069526;28;20492;-76
2021/11/05 00:20:18;;;;;;;1.60;1.20;;;7.20;98.20;;;;;;5069665;28;20461;-76
2021/11/05 00:22:45;;;;;;;1.60;1.30;;;7.30;98.20;;;;;;5064866;28;20948;-76
2021/11/05 00:25:12;;;;;;;1.60;1.30;;;7.30;98.20;;;;;;5059574;28;20864;-76
2021/11/05 00:27:41;;;;;;;1.60;1.30;;;7.30;98.20;;;;;;5068905;28;21027;-76
2021/11/05 00:30:11;;;;;;;1.60;1.40;;;7.40;98.20;;;;;;5070027;28;20484;-76
2021/11/05 00:32:39;;;;;;;1.60;1.30;;;7.40;98.20;;;;;;5069294;28;20465;-76
2021/11/05 00:35:06;;;;;;;1.60;1.30;;;7.40;98.20;;;;;;5058254;28;20458;-76
2021/11/05 00:37:33;;;;;;;1.60;1.30;;;7.40;98.20;;;;;;5064146;28;20485;-76
2021/11/05 00:40:04;;;;;;;1.60;1.30;;;7.40;98.20;;;;;;5070131;28;20462;-76
2021/11/05 00:42:30;;;;;;;1.60;1.20;;;7.50;98.20;;;;;;5068669;28;20450;-76
2021/11/05 00:44:58;;;;;;;2.17;1.97;;;7.50;98.20;;;;;;5065184;28;20477;-76
2021/11/05 00:47:25;;;;;;;1.60;1.30;;;7.50;98.20;;;;;;5069519;28;20572;-74
2021/11/05 00:49:52;;;;;;;1.60;1.20;;;7.50;98.20;;;;;;5070991;28;20959;-76
2021/11/05 00:52:19;;;;;;;1.60;1.30;;;7.50;98.20;;;;;;5068474;28;20507;-77
2021/11/05 00:54:46;;;;;;;1.63;1.40;;;7.60;98.20;;;;;;5066390;28;20453;-76
2021/11/05 00:57:12;;;;;;;1.60;1.20;;;7.60;98.20;;;;;;5067340;28;20457;-77
2021/11/05 00:59:40;;;;;;;1.60;1.20;;;7.60;98.20;;;;;;5070032;28;20948;-76
2021/11/05 01:02:09;;;;;;;1.60;1.20;;;7.60;98.20;;;;;;5069116;28;20462;-76
2021/11/05 01:04:36;;;;;;;1.60;1.23;;;7.60;98.20;;;;;;5068328;28;20970;-76
2021/11/05 01:07:03;;;;;;;1.63;1.30;;;7.60;98.20;;;;;;5068617;28;20468;-76
2021/11/05 01:09:29;;;;;;;1.60;1.30;;;7.60;98.20;;;;;;5065308;28;20458;-76
2021/11/05 01:11:56;;;;;;;1.60;1.20;;;7.70;98.20;;;;;;5067306;28;20457;-76
2021/11/05 01:14:25;;;;;;;1.60;1.30;;;7.70;98.20;;;;;;5066878;28;20472;-75
2021/11/05 01:16:53;;;;;;;1.60;1.30;;;7.70;98.20;;;;;;5066040;28;20570;-76
2021/11/05 01:19:21;;;;;;;1.60;1.30;;;7.70;98.20;;;;;;5068939;28;20481;-76
2021/11/05 01:21:47;;;;;;;1.60;1.30;;;7.70;98.20;;;;;;5065438;28;20462;-76
2021/11/05 01:24:14;;;;;;;1.60;1.20;;;7.70;98.20;;;;;;5059660;28;20967;-75
2021/11/05 01:26:41;;;;;;;1.60;1.30;;;7.70;98.20;;;;;;5063500;28;20469;-75
2021/11/05 01:29:07;;;;;;;1.60;1.30;;;7.70;98.20;;;;;;5068037;28;20493;-76
2021/11/05 01:31:34;;;;;;;1.60;1.30;;;7.70;98.20;;;;;;5068294;28;20848;-75
2021/11/05 01:34:01;;;;;;;1.60;1.30;;;7.70;98.20;;;;;;5070003;28;20476;-74
2021/11/05 01:36:30;;;;;;;1.60;1.30;;;7.80;98.20;;;;;;5069163;28;20484;-74
2021/11/05 01:38:56;;;;;;;1.60;1.20;;;7.80;98.20;;;;;;5068610;28;20501;-74
2021/11/05 01:41:24;;;;;;;1.60;1.30;;;7.80;98.20;;;;;;5068741;28;20978;-74
2021/11/05 01:43:51;;;;;;;2.33;2.13;;;7.80;98.20;;;;;;5063924;28;20458;-74
2021/11/05 01:46:19;;;;;;;1.60;1.20;;;7.90;98.20;;;;;;5048765;28;21002;-74
2021/11/05 01:48:46;;;;;;;1.60;1.20;;;7.90;98.20;;;;;;5061945;28;20481;-74
2021/11/05 01:51:14;;;;;;;1.60;1.30;;;7.90;98.20;;;;;;5062259;28;20470;-74
2021/11/05 01:53:42;;;;;;;1.60;1.30;;;7.90;98.20;;;;;;5061050;28;20852;-74
2021/11/05 01:56:09;;;;;;;1.70;1.50;;;7.90;98.20;;;;;;5063710;28;21089;-74
2021/11/05 01:58:35;;;;;;;2.77;2.57;;;8.00;98.20;;;;;;5061500;28;20469;-74
2021/11/05 02:01:02;;;;;;;1.60;1.20;;;8.00;98.20;;;;;;5061481;28;20829;-74
2021/11/05 02:03:29;;;;;;;1.60;1.30;;;8.00;98.20;;;;;;5069500;28;20464;-74
2021/11/05 02:05:58;;;;;;;1.60;1.30;;;8.00;98.20;;;;;;5067475;28;21061;-74
2021/11/05 02:08:25;;;;;;;1.60;1.30;;;8.00;98.20;;;;;;5062640;28;20478;-76
2021/11/05 02:10:56;;;;;;;1.67;1.30;;;8.00;98.20;;;;;;5070828;28;20457;-75
2021/11/05 02:13:26;;;;;;;1.70;1.60;;;8.00;98.20;;;;;;5062665;28;20816;-76
2021/11/05 02:15:55;;;;;;;1.60;1.20;;;8.00;98.20;;;;;;5061958;28;20449;-76
2021/11/05 02:18:22;;;;;;;1.60;1.20;;;8.10;98.20;;;;;;5064622;28;20481;-76
2021/11/05 02:20:54;;;;;;;1.60;1.20;;;8.10;98.20;;;;;;5072144;28;20461;-76
2021/11/05 02:23:23;;;;;;;1.60;1.20;;;8.10;98.20;;;;;;5067344;28;20458;-76
2021/11/05 02:25:50;;;;;;;1.67;1.40;;;8.20;98.20;;;;;;5067995;28;20515;-76
2021/11/05 02:28:17;;;;;;;1.60;1.30;;;8.20;98.20;;;;;;5071622;28;20499;-76
2021/11/05 02:30:44;;;;;;;1.60;1.20;;;8.20;98.20;;;;;;5072159;28;20467;-76
2021/11/05 02:33:10;;;;;;;1.60;1.30;;;8.20;98.20;;;;;;5062902;28;20972;-74
2021/11/05 02:35:37;;;;;;;1.60;1.20;;;8.20;98.20;;;;;;5067900;28;20887;-74
2021/11/05 02:38:04;;;;;;;1.60;1.20;;;8.30;98.20;;;;;;5061883;28;20568;-76
2021/11/05 02:40:32;;;;;;;1.60;1.20;;;8.30;98.20;;;;;;5062869;28;20469;-75
2021/11/05 02:42:59;;;;;;;2.73;2.07;;;8.30;98.20;;;;;;5063237;28;20463;-75
2021/11/05 02:45:26;;;;;;;1.70;1.50;;;8.30;98.20;;;;;;5049252;28;20518;-76
2021/11/05 02:47:53;;;;;;;1.60;1.40;;;8.20;98.20;;;;;;5057682;28;20477;-76
2021/11/05 02:50:20;;;;;;;1.60;1.20;;;8.20;98.20;;;;;;5066690;28;20552;-76
2021/11/05 02:52:46;;;;;;;1.60;1.20;;;8.30;98.20;;;;;;5068130;28;20468;-76
2021/11/05 02:55:14;;;;;;;1.60;1.40;;;8.20;98.20;;;;;;5068937;28;20462;-75
2021/11/05 02:57:43;;;;;;;1.60;1.20;;;8.20;98.20;;;;;;5068801;28;20484;-76
2021/11/05 03:00:11;;;;;;;1.60;1.20;;;8.20;98.20;;;;;;5070002;28;20477;-76
2021/11/05 03:02:39;;;;;;;1.60;1.30;;;8.20;98.20;;;;;;5070584;28;20465;-76
2021/11/05 03:05:06;;;;;;;1.60;1.20;;;8.20;98.20;;;;;;5069206;28;20987;-76
2021/11/05 03:07:33;;;;;;;1.60;1.30;;;8.20;98.20;;;;;;5069242;28;20486;-76
2021/11/05 03:10:00;;;;;;;1.60;1.30;;;8.20;98.20;;;;;;5070933;28;20822;-76
2021/11/05 03:12:26;;;;;;;1.60;1.30;;;8.20;98.20;;;;;;5070705;28;20836;-75
2021/11/05 03:14:54;;;;;;;1.60;1.20;;;8.20;98.20;;;;;;5062057;28;20464;-76
2021/11/05 03:17:23;;;;;;;1.60;1.30;;;8.10;98.20;;;;;;5069039;28;20482;-76
2021/11/05 03:19:50;;;;;;;1.60;1.20;;;8.10;98.20;;;;;;5069753;28;20461;-76
2021/11/05 03:22:17;;;;;;;1.60;1.30;;;8.20;98.20;;;;;;5066364;28;20469;-76
2021/11/05 03:24:44;;;;;;;1.60;1.30;;;8.20;98.20;;;;;;5069056;28;20458;-76
2021/11/05 03:27:11;;;;;;;1.60;1.30;;;8.20;98.20;;;;;;5066647;28;20723;-76
2021/11/05 03:29:37;;;;;;;1.60;1.20;;;8.20;98.20;;;;;;5070993;28;20480;-76
2021/11/05 03:32:07;;;;;;;1.60;1.20;;;8.20;98.20;;;;;;5069037;28;20465;-76
2021/11/05 03:34:34;;;;;;;1.60;1.30;;;8.10;98.20;;;;;;5070700;28;20461;-76
2021/11/05 03:37:00;;;;;;;1.60;1.30;;;8.10;98.20;;;;;;5069013;28;20461;-76
2021/11/05 03:39:27;;;;;;;1.60;1.30;;;8.10;98.20;;;;;;5069689;28;20465;-76
2021/11/05 03:41:54;;;;;;;1.60;1.30;;;8.10;98.20;;;;;;5068821;28;20473;-76
2021/11/05 03:44:21;;;;;;;1.60;1.30;;;8.10;98.20;;;;;;5066475;28;20465;-76
2021/11/05 03:46:47;;;;;;;1.60;1.20;;;8.10;98.20;;;;;;5069275;28;20493;-75
2021/11/05 03:49:16;;;;;;;1.60;1.20;;;8.00;98.20;;;;;;5069209;28;20489;-75
2021/11/05 03:51:42;;;;;;;1.60;1.20;;;8.10;98.20;;;;;;5069345;28;20468;-75
2021/11/05 03:54:09;;;;;;;1.60;1.30;;;8.00;98.20;;;;;;5068310;28;20961;-75
2021/11/05 03:56:36;;;;;;;1.60;1.20;;;8.00;98.20;;;;;;5079497;28;20441;-75
2021/11/05 03:59:04;;;;;;;1.70;1.50;;;8.10;98.20;;;;;;5069305;28;21025;-75
2021/11/05 04:01:31;;;;;;;1.60;1.20;;;8.10;98.20;;;;;;5069606;28;20840;-75
2021/11/05 04:03:58;;;;;;;1.50;1.20;;;8.00;98.20;;;;;;5068786;28;20473;-76
2021/11/05 04:06:26;;;;;;;1.60;1.20;;;8.10;98.20;;;;;;5069612;28;20489;-77
2021/11/05 04:08:54;;;;;;;1.60;1.30;;;8.10;98.20;;;;;;5068892;28;20481;-76
2021/11/05 04:11:20;;;;;;;1.60;1.20;;;8.00;98.20;;;;;;5069196;28;20871;-77
2021/11/05 04:13:47;;;;;;;1.60;1.20;;;8.00;98.20;;;;;;5069498;28;20465;-77
2021/11/05 04:16:14;;;;;;;1.60;1.20;;;8.00;98.20;;;;;;5064708;28;20483;-77
2021/11/05 04:18:41;;;;;;;1.60;1.30;;;8.00;98.20;;;;;;5060701;28;20496;-76
2021/11/05 04:21:09;;;;;;;1.60;1.20;;;8.00;98.20;;;;;;5068743;28;20579;-78
2021/11/05 04:23:37;;;;;;;1.60;1.20;;;8.00;98.20;;;;;;5057502;28;20470;-77
2021/11/05 04:26:04;;;;;;;2.87;1.97;;;8.00;98.20;;;;;;5064098;28;20486;-77
2021/11/05 04:28:32;;;;;;;1.60;1.30;;;8.00;98.20;;;;;;5067590;28;20485;-76
2021/11/05 04:31:04;;;;;;;1.60;1.30;;;8.00;98.20;;;;;;5066652;28;20477;-78
2021/11/05 04:33:31;;;;;;;1.60;1.20;;;8.00;98.20;;;;;;5069682;28;20453;-77
2021/11/05 04:35:58;;;;;;;1.60;1.20;;;8.00;98.20;;;;;;5058368;28;20458;-77
2021/11/05 04:38:26;;;;;;;1.60;1.30;;;8.00;98.20;;;;;;5055165;28;20830;-77
2021/11/05 04:40:54;;;;;;;1.60;1.30;;;8.00;98.20;;;;;;5063425;28;20853;-75
2021/11/05 04:43:22;;;;;;;1.60;1.20;;;8.00;98.20;;;;;;5066657;28;20453;-78
2021/11/05 04:45:48;;;;;;;1.60;1.30;;;8.00;98.20;;;;;;5055936;28;20861;-77
2021/11/05 04:48:15;;;;;;;1.60;1.20;;;8.00;98.20;;;;;;5059235;28;20478;-78
2021/11/05 04:50:42;;;;;;;1.60;1.20;;;8.00;98.20;;;;;;5069492;28;20466;-77
2021/11/05 04:53:10;;;;;;;1.70;1.30;;;8.00;98.20;;;;;;5064035;28;20495;-77
2021/11/05 04:55:37;;;;;;;1.60;1.30;;;8.00;98.20;;;;;;5064909;28;20469;-77
2021/11/05 04:58:05;;;;;;;1.60;1.20;;;8.00;98.20;;;;;;5056955;28;20996;-79
2021/11/05 05:00:32;;;;;;;1.60;1.37;;;8.00;98.20;;;;;;5069283;28;20465;-77
2021/11/05 05:02:59;;;;;;;1.60;1.30;;;8.00;98.20;;;;;;5069268;28;20461;-75
2021/11/05 05:05:27;;;;;;;1.60;1.23;;;8.10;98.20;;;;;;5067248;28;20492;-75
2021/11/05 05:07:54;;;;;;;1.60;1.20;;;8.00;98.20;;;;;;5067620;28;20481;-76
2021/11/05 05:10:21;;;;;;;1.60;1.33;;;8.00;98.20;;;;;;5068866;28;20842;-75
2021/11/05 05:12:48;;;;;;;1.60;1.30;;;8.00;98.20;;;;;;5065727;28;20911;-76
2021/11/05 05:15:17;;;;;;;1.60;1.40;;;8.00;98.20;;;;;;5064254;28;20454;-76
2021/11/05 05:17:45;;;;;;;1.60;1.20;;;8.00;98.20;;;;;;5064904;28;20481;-76
2021/11/05 05:20:14;;;;;;;1.60;1.20;;;8.00;98.20;;;;;;5067699;28;20465;-75
2021/11/05 05:22:41;;;;;;;1.60;1.30;;;8.00;98.20;;;;;;5063913;28;20469;-76
2021/11/05 05:25:11;;;;;;;1.60;1.37;;;8.00;98.20;;;;;;5055991;28;20468;-76
2021/11/05 05:27:45;;;;;;;1.60;1.30;;;8.00;98.20;;;;;;5077552;28;20480;-76
2021/11/05 05:30:19;;;;;;;1.60;1.20;;;8.00;98.20;;;;;;5088441;28;20552;-76
2021/11/05 05:32:50;;;;;;;1.60;1.20;;;8.00;98.20;;;;;;5084814;28;20476;-75
2021/11/05 05:35:21;;;;;;;1.60;1.20;;;8.10;98.20;;;;;;5084947;28;20454;-76
2021/11/05 05:37:48;;;;;;;1.60;1.30;;;8.00;98.20;;;;;;5080584;28;20546;-75
2021/11/05 05:40:16;;;;;;;1.60;1.20;;;8.00;98.20;;;;;;5070374;28;20464;-76
2021/11/05 05:42:45;;;;;;;1.60;1.20;;;8.10;98.20;;;;;;5068589;28;20523;-76
2021/11/05 05:45:13;;;;;;;1.60;1.20;;;8.10;98.20;;;;;;5076208;28;20560;-75
2021/11/05 05:47:41;;;;;;;1.60;1.20;;;8.10;98.20;;;;;;5076824;28;20572;-76
2021/11/05 05:50:13;;;;;;;1.60;1.20;;;8.10;98.20;;;;;;5074074;28;20501;-75
2021/11/05 05:52:40;;;;;;;1.60;1.27;;;8.00;98.20;;;;;;5070376;28;20477;-76
2021/11/05 05:55:09;;;;;;;1.57;1.20;;;8.00;98.20;;;;;;5074894;28;20476;-76
2021/11/05 05:57:36;;;;;;;1.60;1.20;;;8.00;98.20;;;;;;5077864;28;20493;-76
2021/11/05 06:00:04;;;;;;;1.60;1.20;;;8.00;98.20;;;;;;5077365;28;20967;-74
2021/11/05 06:02:31;;;;;;;1.60;1.20;;;8.00;98.20;;;;;;5071374;28;20465;-76
2021/11/05 06:04:58;;;;;;;1.60;1.20;;;8.00;98.20;;;;;;5070822;28;20469;-76
2021/11/05 06:07:26;;;;;;;1.60;1.10;;;8.00;98.20;;;;;;5072769;28;20508;-77
2021/11/05 06:09:53;;;;;;;1.60;1.30;;;8.10;98.20;;;;;;5071644;28;20472;-75
2021/11/05 06:12:20;;;;;;;1.60;1.30;;;8.10;98.20;;;;;;5071492;28;20839;-75
2021/11/05 06:14:50;;;;;;;1.60;1.30;;;8.00;98.20;;;;;;5074253;28;20976;-76
2021/11/05 06:17:23;;;;;;;1.60;1.20;;;8.10;98.20;;;;;;5064842;28;21049;-75
2021/11/05 06:19:50;;;;;;;1.60;1.27;;;8.10;98.20;;;;;;5061521;28;20531;-76
2021/11/05 06:22:18;;;;;;;1.60;1.30;;;8.00;98.20;;;;;;5068904;28;20744;-77
2021/11/05 06:24:47;;;;;;;1.60;1.20;;;8.00;98.20;;;;;;5071983;28;20461;-74
2021/11/05 06:27:14;;;;;;;1.60;1.20;;;8.10;98.20;;;;;;5070619;28;20495;-77
2021/11/05 06:29:42;;;;;;;1.60;1.20;;;8.10;98.20;;;;;;5061419;28;20492;-76
2021/11/05 06:32:12;;;;;;;1.60;1.20;;;8.00;98.20;;;;;;5064335;28;20975;-74
2021/11/05 06:34:39;;;;;;;1.60;1.20;;;8.00;98.20;;;;;;5073294;28;20517;-75
2021/11/05 06:37:06;;;;;;;1.60;1.30;;;8.00;98.20;;;;;;5070109;28;20492;-76
2021/11/05 06:39:45;;;;;;;1.60;1.10;;;8.00;98.20;;;;;;5073977;28;21022;-75
2021/11/05 06:42:20;;;;;;;1.60;1.20;;;8.00;98.20;;;;;;5074021;28;20556;-75
2021/11/05 06:44:47;;;;;;;1.57;1.10;;;8.00;98.20;;;;;;5067961;28;20856;-76
2021/11/05 06:47:14;;;;;;;1.60;1.20;;;8.00;98.20;;;;;;5067781;28;20495;-75
2021/11/05 06:49:40;;;;;;;1.60;1.30;;;8.00;98.20;;;;;;5068975;28;21134;-75
2021/11/05 06:52:07;;;;;;;1.60;1.30;;;8.00;98.20;;;;;;5065095;28;20466;-75
2021/11/05 06:54:38;;;;;;;1.60;1.27;;;8.00;98.20;;;;;;5059894;28;20458;-75
2021/11/05 06:57:05;;;;;;;1.60;1.40;;;8.00;98.20;;;;;;5057922;28;20450;-73
2021/11/05 06:59:34;;;;;;;1.60;1.30;;;8.00;98.20;;;;;;5066879;28;20471;-74
2021/11/05 07:02:02;;;;;;;1.60;1.20;;;8.00;98.20;;;;;;5055931;28;20458;-76
2021/11/05 07:04:29;;;;;;;1.60;1.30;;;8.00;98.20;;;;;;5070342;28;20870;-74
2021/11/05 07:06:55;;;;;;;1.60;1.33;;;8.00;98.20;;;;;;5068791;28;20815;-73
2021/11/05 07:09:23;;;;;;;1.60;1.20;;;8.00;98.20;;;;;;5063405;28;20564;-73
2021/11/05 07:11:50;;;;;;;1.60;1.30;;;8.00;98.20;;;;;;5062117;28;20470;-75
2021/11/05 07:14:18;;;;;;;1.60;1.20;;;8.00;98.20;;;;;;5060598;28;20899;-75
2021/11/05 07:16:46;;;;;;;1.60;1.20;;;8.00;98.20;;;;;;5063684;28;20955;-75
2021/11/05 07:19:14;;;;;;;1.60;1.20;;;8.00;98.20;;;;;;5062959;28;20485;-75
2021/11/05 07:21:41;;;;;;;1.60;1.20;;;8.00;98.20;;;;;;5061213;28;20504;-75
2021/11/05 07:24:09;;;;;;;1.60;1.30;;;8.00;98.20;;;;;;5065231;28;20940;-75
2021/11/05 07:26:40;;;;;;;3.37;3.10;;;8.00;98.20;;;;;;5069084;28;20496;-75
2021/11/05 07:29:09;;;;;;;1.60;1.20;;;8.00;98.20;;;;;;5067826;28;20968;-73
2021/11/05 07:31:36;;;;;;;3.00;2.80;;;7.90;98.20;;;;;;5069153;28;20465;-75
2021/11/05 07:34:05;;;;;;;1.60;1.30;;;7.90;98.20;;;;;;5068945;28;20469;-74
2021/11/05 07:36:32;;;;;;;1.60;1.20;;;7.90;98.20;;;;;;5068893;28;20458;-74
2021/11/05 07:38:59;;;;;;;1.60;1.23;;;7.90;98.20;;;;;;5064221;28;20508;-74
2021/11/05 07:41:25;;;;;;;1.57;1.20;;;7.90;98.20;;;;;;5068720;28;20465;-74
2021/11/05 07:43:53;;;;;;;1.83;1.73;;;7.90;98.20;;;;;;5060323;28;20454;-74
2021/11/05 07:46:21;;;;;;;1.60;1.20;;;7.90;98.20;;;;;;5065262;28;20481;-77
2021/11/05 07:48:48;;;;;;;1.60;1.20;;;7.90;98.20;;;;;;5062839;28;20488;-76
2021/11/05 07:51:16;;;;;;;1.70;1.53;;;8.00;98.20;;;;;;5069123;28;20465;-77
2021/11/05 07:53:44;;;;;;;1.60;1.30;;;8.00;98.20;;;;;;5066660;28;20480;-75
2021/11/05 07:56:14;;;;;;;1.60;1.20;;;8.10;98.20;;;;;;5062495;28;20590;-76
2021/11/05 07:58:42;;;;;;;1.60;1.30;;;8.10;98.20;;;;;;5061169;28;20514;-75
2021/11/05 08:01:09;;;;;;;1.60;1.30;;;8.10;98.20;;;;;;5081730;28;20808;-75
2021/11/05 08:03:36;;;;;;;1.57;1.10;;;8.20;98.20;;;;;;5117358;22;20518;-77
2021/11/05 08:06:03;;;;;;;1.60;1.20;;;8.20;98.20;;;;;;5101330;28;20844;-75
2021/11/05 08:08:32;;;;;;;1.60;1.30;;;8.20;98.20;;;;;;5084555;28;21075;-75
2021/11/05 08:11:09;;;;;;;1.60;1.20;;;8.30;98.20;;;;;;5089381;28;20956;-74
2021/11/05 08:13:38;;;;;;;1.60;1.20;;;8.30;98.20;;;;;;5078397;28;20468;-76
2021/11/05 08:16:06;;;;;;;1.60;1.30;;;8.30;98.20;;;;;;5093159;28;20497;-76
2021/11/05 08:18:33;;;;;;;1.60;1.20;;;8.40;98.20;;;;;;5087015;28;20485;-75
2021/11/05 08:21:01;;;;;;;1.60;1.20;;;8.40;98.20;;;;;;5081258;28;20483;-76
2021/11/05 08:23:28;;;;;;;1.60;1.20;;;8.50;98.20;;;;;;5076928;28;20785;-78
2021/11/05 08:25:56;;;;;;;1.60;1.20;;;8.50;98.20;;;;;;5061964;28;20967;-78
2021/11/05 08:28:23;;;;;;;1.60;1.20;;;8.50;98.20;;;;;;5080632;28;20500;-77
2021/11/05 08:30:51;;;;;;;1.60;1.30;;;8.60;98.20;;;;;;5083404;28;20545;-77
2021/11/05 08:33:20;;;;;;;1.60;1.30;;;8.60;98.20;;;;;;5085607;28;20450;-75
2021/11/05 08:35:56;;;;;;;1.60;1.30;;;8.70;98.20;;;;;;5065295;28;20469;-76
2021/11/05 08:38:25;;;;;;;1.60;1.30;;;8.70;98.20;;;;;;5064735;28;20589;-77
2021/11/05 08:40:53;;;;;;;1.60;1.20;;;8.70;98.20;;;;;;5059192;28;20462;-76
2021/11/05 08:43:29;;;;;;;1.60;1.30;;;8.80;98.20;;;;;;5064309;28;20474;-76
2021/11/05 08:45:57;;;;;;;1.60;1.20;;;8.80;98.20;;;;;;5069264;28;20449;-74
2021/11/05 08:48:24;;;;;;;1.60;1.20;;;8.90;98.20;;;;;;5065380;28;20502;-75
2021/11/05 08:50:52;;;;;;;1.60;1.20;;;9.00;98.20;;;;;;5071744;28;20448;-74
2021/11/05 08:53:20;;;;;;;1.60;1.20;;;9.00;98.20;;;;;;5055772;28;20668;-76
2021/11/05 08:55:47;;;;;;;1.60;1.20;;;9.00;98.20;;;;;;5057330;28;20534;-76
2021/11/05 08:58:14;;;;;;;1.60;1.17;;;9.00;98.20;;;;;;5060960;28;20991;-76
2021/11/05 09:00:43;;;;;;;1.60;1.20;;;9.10;98.20;;;;;;5058799;28;20468;-76
2021/11/05 09:03:10;;;;;;;1.60;1.20;;;9.10;98.20;;;;;;5060043;28;20474;-76
2021/11/05 09:05:37;;;;;;;2.13;1.83;;;9.10;98.20;;;;;;5057856;28;20861;-76
2021/11/05 09:08:05;;;;;;;1.60;1.17;;;9.20;98.20;;;;;;5077068;28;20553;-74
2021/11/05 09:10:32;;;;;;;1.60;1.13;;;9.20;98.20;;;;;;5076662;28;20467;-76
2021/11/05 09:12:59;;;;;;;1.60;1.17;;;9.20;98.20;;;;;;5067042;28;20947;-76
2021/11/05 09:15:28;;;;;;;1.60;1.20;;;9.30;98.20;;;;;;5060709;28;20454;-74
2021/11/05 09:17:58;;;;;;;1.60;1.20;;;9.40;98.20;;;;;;5065119;28;20846;-76
2021/11/05 09:20:25;;;;;;;1.60;1.20;;;9.40;98.20;;;;;;5065543;28;20465;-76
2021/11/05 09:22:51;;;;;;;1.60;1.20;;;9.50;98.20;;;;;;5062191;28;20465;-74
2021/11/05 09:25:19;;;;;;;1.60;1.20;;;9.50;98.20;;;;;;5058806;28;20468;-73
2021/11/05 09:27:47;;;;;;;1.60;1.20;;;9.60;98.20;;;;;;5071739;28;20492;-76
2021/11/05 09:30:16;;;;;;;1.60;1.20;;;9.60;98.20;;;;;;5071202;28;20841;-76
2021/11/05 09:32:43;;;;;;;1.60;1.10;;;9.70;98.20;;;;;;5065834;28;20465;-77
2021/11/05 09:35:11;;;;;;;1.60;1.10;;;9.70;98.20;;;;;;5080883;28;20464;-77
2021/11/05 09:37:40;;;;;;;1.60;1.20;;;9.70;98.20;;;;;;5079053;28;20477;-76
2021/11/05 09:40:10;;;;;;;1.60;1.20;;;9.80;98.20;;;;;;5077576;28;20465;-76
2021/11/05 09:42:37;;;;;;;1.60;1.20;;;9.80;98.20;;;;;;5062617;28;20564;-76
2021/11/05 09:45:05;;;;;;;1.60;1.10;;;9.80;98.20;;;;;;5057876;28;20461;-75
2021/11/05 09:47:32;;;;;;;1.60;1.20;;;9.90;98.20;;;;;;5068087;28;20492;-74
2021/11/05 09:49:59;;;;;;;1.60;1.10;;;9.90;98.20;;;;;;5072793;28;20464;-76
2021/11/05 09:52:28;;;;;;;1.60;1.17;;;10.10;98.20;;;;;;5063044;28;20468;-74
2021/11/05 09:54:56;;;;;;;1.60;1.10;;;10.10;98.20;;;;;;5058390;28;20843;-77
2021/11/05 09:57:23;;;;;;;1.60;1.20;;;10.20;98.20;;;;;;5070958;28;21288;-78
2021/11/05 09:59:50;;;;;;;1.60;1.10;;;10.30;98.20;;;;;;5065323;28;20464;-77
2021/11/05 10:02:17;;;;;;;1.60;1.20;;;10.40;98.20;;;;;;5062062;28;20472;-76
2021/11/05 10:04:45;;;;;;;1.60;1.20;;;10.40;98.20;;;;;;5058738;28;20792;-76
2021/11/05 10:07:12;;;;;;;1.60;1.10;;;10.50;98.20;;;;;;5062223;28;20513;-77
2021/11/05 10:09:42;;;;;;;1.60;1.10;;;10.50;98.20;;;;;;5063669;28;20609;-76
2021/11/05 10:12:12;;;;;;;1.60;1.20;;;10.60;98.20;;;;;;5061814;28;20657;-76
2021/11/05 10:14:40;;;;;;;1.60;1.10;;;10.60;98.20;;;;;;5057811;28;20546;-77
2021/11/05 10:17:08;;;;;;;1.60;1.20;;;10.70;98.20;;;;;;5057638;28;20779;-77
2021/11/05 10:19:54;;;;;;;1.60;1.10;;;10.70;98.20;;;;;;5063168;28;20469;-75
2021/11/05 10:22:37;;;;;;;1.60;1.20;;;10.90;98.20;;;;;;5062704;28;20473;-76
2021/11/05 10:25:27;;;;;;;1.60;1.10;;;11.00;98.20;;;;;;5058739;28;20469;-74
2021/11/05 10:28:09;;;;;;;1.60;1.20;;;11.10;98.20;;;;;;5071885;22;20587;-77
2021/11/05 10:30:39;;;;;;;1.60;1.10;;;11.20;98.20;;;;;;5073480;28;20554;-74
2021/11/05 10:33:07;;;;;;;1.60;1.10;;;11.30;98.20;;;;;;5087325;28;20550;-75
2021/11/05 10:35:39;;;;;;;1.60;1.00;;;11.40;98.20;;;;;;5097955;28;20452;-74
2021/11/05 10:38:14;;;;;;;1.60;1.10;;;11.40;98.20;;;;;;5080200;28;20488;-78
2021/11/05 10:40:55;;;;;;;1.60;1.10;;;11.50;98.20;;;;;;5067525;28;20474;-75
2021/11/05 10:43:33;;;;;;;1.60;1.20;;;11.50;98.20;;;;;;5085811;28;20475;-77
2021/11/05 10:46:00;;;;;;;1.60;1.07;;;11.50;98.20;;;;;;5080928;28;20463;-75
2021/11/05 10:48:30;;;;;;;1.60;1.10;;;11.60;98.20;;;;;;5093389;28;20484;-77
2021/11/05 10:50:59;;;;;;;1.60;1.10;;;11.60;98.20;;;;;;5078188;28;20629;-77
2021/11/05 10:53:27;;;;;;;1.60;1.10;;;11.70;98.20;;;;;;5077896;28;20471;-76
2021/11/05 10:55:58;;;;;;;1.60;1.10;;;11.70;98.20;;;;;;5077607;28;20462;-76
2021/11/05 10:58:27;;;;;;;1.60;1.07;;;11.80;98.20;;;;;;5079901;28;20487;-77
2021/11/05 11:00:58;;;;;;;1.60;1.20;;;11.80;98.20;;;;;;5097456;28;20466;-76
2021/11/05 11:03:31;;;;;;;1.60;1.10;;;12.00;98.20;;;;;;5105837;28;20464;-76
2021/11/05 11:06:00;;;;;;;1.60;1.00;;;12.20;98.20;;;;;;5082049;28;20456;-76
2021/11/05 11:08:28;;;;;;;1.60;1.10;;;12.20;98.20;;;;;;5067296;28;20555;-77
2021/11/05 11:10:58;;;;;;;1.70;1.30;;;12.20;98.20;;;;;;5089573;28;20468;-77
2021/11/05 11:13:38;;;;;;;1.60;1.10;;;12.20;98.20;;;;;;5086422;28;20833;-74
2021/11/05 11:16:08;;;;;;;1.60;1.00;;;12.20;98.20;;;;;;5075158;28;20464;-74
2021/11/05 11:18:46;;;;;;;1.60;1.10;;;12.30;98.20;;;;;;5073629;28;20487;-75
2021/11/05 11:21:14;;;;;;;1.60;1.07;;;12.20;98.20;;;;;;5103914;28;20460;-75
2021/11/05 11:23:41;;;;;;;1.53;1.00;;;12.20;98.20;;;;;;5079832;28;20988;-76
2021/11/05 11:26:09;;;;;;;1.60;1.10;;;12.10;98.20;;;;;;5083863;28;20838;-78
2021/11/05 11:28:36;;;;;;;1.60;1.00;;;12.00;98.20;;;;;;5087532;28;20491;-76
2021/11/05 11:31:03;;;;;;;1.57;1.07;;;12.00;98.20;;;;;;5082970;28;20456;-77
2021/11/05 11:33:31;;;;;;;1.60;1.10;;;12.00;98.20;;;;;;5089847;28;20821;-76
2021/11/05 11:35:59;;;;;;;1.60;1.00;;;11.90;98.20;;;;;;5091638;28;20508;-76
2021/11/05 11:38:27;;;;;;;1.60;1.10;;;11.90;98.20;;;;;;5083770;28;20492;-77
2021/11/05 11:40:54;;;;;;;1.60;1.10;;;12.00;98.20;;;;;;5076506;28;20460;-77
2021/11/05 11:43:23;;;;;;;1.50;1.07;;;12.00;98.20;;;;;;5085002;28;20575;-75
2021/11/05 11:45:54;;;;;;;1.53;1.00;;;12.10;98.20;;;;;;5092934;28;20471;-77
2021/11/05 11:48:47;;;;;;;1.60;1.10;;;12.00;98.20;;;;;;5091206;28;20989;-75
2021/11/05 11:51:38;;;;;;;1.57;1.10;;;12.00;98.20;;;;;;5093154;28;20470;-77
2021/11/05 11:54:29;;;;;;;1.60;1.20;;;12.00;98.20;;;;;;5083589;28;20461;-77
2021/11/05 11:56:56;;;;;;;1.60;1.10;;;12.10;98.20;;;;;;5088921;28;20552;-78
2021/11/05 11:59:31;;;;;;;1.60;1.00;;;12.20;98.20;;;;;;5092169;28;20480;-75
2021/11/05 12:01:59;;;;;;;1.60;1.10;;;12.20;98.20;;;;;;5094737;28;20731;-76
2021/11/05 12:04:34;;;;;;;1.60;1.00;;;12.20;98.20;;;;;;5094952;28;20552;-77
2021/11/05 12:07:06;;;;;;;1.60;1.07;;;12.30;98.20;;;;;;5095025;28;20460;-77
2021/11/05 12:09:34;;;;;;;1.60;1.00;;;12.50;98.20;;;;;;5075976;28;20817;-76
2021/11/05 12:12:35;;;;;;;1.60;1.10;;;12.60;98.20;;;;;;5074995;28;20460;-76
2021/11/05 12:15:14;;;;;;;1.60;1.10;;;12.70;98.20;;;;;;5078228;28;20465;-75
2021/11/05 12:18:07;;;;;;;1.60;1.10;;;12.70;98.20;;;;;;5078156;28;20479;-75
2021/11/05 12:20:37;;;;;;;1.60;1.07;;;12.70;98.20;;;;;;5078620;28;20888;-76
2021/11/05 12:23:22;;;;;;;1.60;1.10;;;12.70;98.20;;;;;;5080646;28;20464;-76
2021/11/05 12:26:01;;;;;;;1.60;1.10;;;12.70;98.20;;;;;;5074846;28;20462;-76
2021/11/05 12:28:31;;;;;;;1.53;1.00;;;12.70;98.20;;;;;;5093997;28;20483;-77
2021/11/05 12:31:25;;;;;;;1.60;1.00;;;12.80;98.20;;;;;;5096369;28;20486;-77
2021/11/05 12:33:52;;;;;;;1.60;1.10;;;12.90;98.20;;;;;;5085298;28;20460;-76
2021/11/05 12:36:19;;;;;;;1.60;1.10;;;13.10;98.20;;;;;;5084981;28;20463;-77
2021/11/05 12:39:03;;;;;;;1.60;1.00;;;13.20;98.20;;;;;;5071040;28;20477;-74
2021/11/05 12:41:30;;;;;;;1.60;1.00;;;13.30;98.20;;;;;;5080629;28;20472;-76
2021/11/05 12:44:11;;;;;;;1.60;1.00;;;13.40;98.20;;;;;;5086679;28;20459;-77
2021/11/05 12:46:46;;;;;;;2.97;1.47;;;13.40;98.20;;;;;;5071399;28;20467;-77
2021/11/05 12:49:15;;;;;;;1.60;1.03;;;13.40;98.20;;;;;;5092906;28;20487;-75
2021/11/05 12:51:45;;;;;;;1.60;1.00;;;13.30;98.20;;;;;;5096826;28;20465;-75
2021/11/05 12:54:16;;;;;;;1.57;1.00;;;13.30;98.20;;;;;;5080114;28;20472;-75
2021/11/05 12:56:49;;;;;;;1.60;1.00;;;13.30;98.20;;;;;;5091269;28;20925;-76
2021/11/05 12:59:18;;;;;;;1.60;1.00;;;13.20;98.20;;;;;;5081719;28;20472;-75
2021/11/05 13:01:55;;;;;;;1.60;1.10;;;13.20;98.20;;;;;;5080647;28;20464;-79
2021/11/05 13:04:23;;;;;;;1.60;1.00;;;13.20;98.20;;;;;;5080092;28;20468;-74